Latest Weather Observations for Proserpine

IDQ60801

Issued at 10:32 pm EST Sunday 30 April 2017 (issued every 30 minutes, with the page automatically refreshed every 10 minutes)

About weather observations | Map of weather stations | Latest weather observations for QLD | Other Formats
Station Details ID: 033247 Name: PROSERPINE AIRPORT Lat: -20.49 Lon: 148.56 Height: 19.7 m
Data from the previous 72 hours. | See also: Recent months at Proserpine
Date/Time
EST
Temp
°C
App
Temp
°C
Dew
Point
°C
Rel
Hum
%
Delta-T
°C
Wind Press
QNH
hPa
Press
MSL
hPa
Rain since
9am
mm
Dir  Spd
km/h
Gust
km/h
Spd
kts
Gust
kts
30/10:30pm 18.1 18.1 16.3 89 1.1 SSW 11 13 6 7 1017.9 1017.8 0.2
30/10:00pm 19.0 18.7 16.4 85 1.6 S 13 15 7 8 1018.0 1017.9 0.2
30/09:30pm 19.4 19.5 16.6 84 1.7 SSE 11 15 6 8 1018.1 1018.0 0.2
30/09:00pm 20.2 20.1 17.0 82 1.9 SSE 13 19 7 10 1018.1 1018.0 0.2
30/08:30pm 20.4 20.4 17.2 82 2.0 SSE 13 19 7 10 1018.1 1018.0 0.2
30/08:00pm 20.7 21.1 17.3 81 2.1 SSE 11 13 6 7 1017.9 1017.8 0.2
30/07:30pm 21.6 21.5 17.8 79 2.4 SE 15 19 8 10 1017.6 1017.6 0.2
30/07:00pm 22.2 21.8 18.0 77 2.6 ESE 17 20 9 11 1017.2 1017.1 0.2
30/06:30pm 22.7 22.3 18.0 75 2.9 ESE 17 24 9 13 1016.8 1016.7 0.2
30/06:00pm 22.8 22.9 18.3 76 2.8 ESE 15 22 8 12 1016.6 1016.5 0.2
30/05:30pm 23.2 22.9 18.3 74 3.1 ESE 17 24 9 13 1016.2 1016.1 0.2
30/05:00pm 23.6 22.7 17.8 70 3.6 ESE 19 26 10 14 1016.1 1016.0 0.2
30/04:30pm 24.0 22.0 17.3 66 4.2 ESE 24 32 13 17 1016.0 1015.9 0.2
30/04:00pm 24.4 21.9 17.1 63 4.5 ESE 26 32 14 17 1015.7 1015.6 0.2
30/03:30pm 24.7 22.6 17.2 63 4.7 ESE 24 33 13 18 1015.5 1015.4 0.2
30/03:00pm 24.8 22.6 16.8 61 4.9 ESE 24 35 13 19 1015.4 1015.3 0.2
30/02:30pm 25.0 22.4 17.7 64 4.6 SE 28 35 15 19 1015.4 1015.3 0.2
30/02:00pm 25.3 23.3 18.2 64 4.5 ESE 26 37 14 20 1015.6 1015.5 0.2
30/01:30pm 25.3 23.2 18.0 64 4.6 SE 26 37 14 20 1015.7 1015.6 0.2
30/01:00pm 24.7 23.2 18.6 69 3.9 SE 24 33 13 18 1015.9 1015.8 0.2
30/12:30pm 25.1 22.4 18.5 67 4.2 SE 30 41 16 22 1016.2 1016.1 0.2
30/12:00pm 24.4 24.4 19.7 75 3.0 ESE 19 28 10 15 1016.5 1016.4 0.2
30/11:30am 24.1 23.8 19.6 76 2.9 SE 20 35 11 19 1016.9 1016.8 0.2
30/11:00am 23.1 23.4 19.5 80 2.3 SE 17 24 9 13 1017.3 1017.2 0.2
30/10:30am 23.0 24.9 20.5 86 1.6 SE 11 19 6 10 1017.8 1017.7 0.2
30/10:00am 21.6 24.3 20.6 94 0.6 SSE 7 11 4 6 1018.4 1018.3 0.2
30/09:31am 20.6 22.5 19.8 95 0.5 SE 9 13 5 7 1018.4 1018.3 0.2
30/09:30am 20.7 22.7 19.9 95 0.5 SE 9 13 5 7 1018.4 1018.3 0.2
30/09:13am 20.5 22.4 19.8 96 0.4 SE 9 13 5 7 1018.3 1018.2 0.0
30/09:05am 20.5 22.4 19.8 96 0.4 SE 9 11 5 6 1018.2 1018.1 0.0
30/09:00am 20.6 22.6 19.9 96 0.4 SE 9 13 5 7 1018.1 1018.0 1.4
30/08:59am 20.6 22.6 19.9 96 0.4 SE 9 13 5 7 1018.1 1018.0 1.4
30/08:56am 20.3 22.1 19.6 96 0.4 SSE 9 13 5 7 1018.1 1018.0 1.4
30/08:52am 20.4 22.3 19.7 96 0.4 SSE 9 13 5 7 1018.1 1018.0 1.4
30/08:30am 19.9 21.2 19.4 97 0.3 SSE 11 19 6 10 1018.2 1018.1 1.4
30/08:07am 19.6 19.6 18.9 96 0.4 SSE 17 22 9 12 1018.1 1018.0 0.6
30/08:01am 19.7 19.7 19.0 96 0.4 S 17 22 9 12 1018.1 1018.0 0.6
30/08:00am 19.7 19.8 19.2 97 0.3 S 17 20 9 11 1018.1 1018.0 0.6
30/07:47am 19.6 19.7 19.1 97 0.3 SSE 17 22 9 12 1018.0 1017.9 0.6
30/07:30am 19.4 19.4 18.9 97 0.3 SSE 17 22 9 12 1017.8 1017.7 0.6
30/07:09am 19.3 19.9 18.6 96 0.4 SSE 13 20 7 11 1017.6 1017.6 0.6
30/07:00am 19.3 20.0 18.8 97 0.3 SSE 13 17 7 9 1017.5 1017.5 0.6
30/06:30am 18.7 19.2 18.4 98 0.2 S 13 19 7 10 1017.0 1016.9 0.6
30/06:26am 18.6 19.1 18.3 98 0.2 SSE 13 17 7 9 1016.9 1016.8 0.6
30/06:03am 17.8 18.6 17.3 97 0.3 SSW 9 11 5 6 1016.7 1016.6 0.6
30/06:00am 17.8 18.6 17.3 97 0.3 SSW 9 11 5 6 1016.7 1016.6 0.6
30/05:46am 17.7 18.8 17.2 97 0.3 SSW 7 9 4 5 1016.6 1016.5 0.4
30/05:35am 17.8 19.1 17.2 96 0.4 SSW 6 7 3 4 1016.5 1016.4 0.4
30/05:30am 17.7 19.0 17.1 96 0.4 SW 6 7 3 4 1016.5 1016.4 0.0
30/05:00am 17.4 18.6 16.8 96 0.4 SW 6 7 3 4 1016.3 1016.2 0.0
30/04:38am 17.4 18.0 16.8 96 0.4 SW 9 13 5 7 1016.0 1015.9 0.0
30/04:30am 17.4 18.0 16.8 96 0.4 SW 9 13 5 7 1016.0 1015.9 0.0
30/04:05am 17.1 18.1 16.3 95 0.5 ESE 6 6 3 3 1016.0 1015.9 0.0
30/04:00am 17.0 17.9 16.0 94 0.6 ESE 6 7 3 4 1015.9 1015.8 0.0
30/03:54am 16.9 17.7 15.9 94 0.6 ESE 6 7 3 4 1015.9 1015.8 0.0
30/03:44am 16.9 17.4 15.6 92 0.8 SE 7 9 4 5 1015.9 1015.8 0.0
30/03:30am 16.9 18.6 15.2 90 1.0 CALM 0 0 0 0 1015.5 1015.4 0.0
30/03:00am 16.4 16.9 14.9 91 0.9 SSE 6 7 3 4 1015.6 1015.5 0.0
30/02:30am 16.3 17.9 15.0 92 0.8 CALM 0 0 0 0 1015.9 1015.8 0.0
30/02:00am 15.2 16.6 14.4 95 0.5 CALM 0 4 0 2 1016.2 1016.1 0.0
30/01:30am 14.5 15.4 12.9 90 0.9 CALM 0 0 0 0 1016.3 1016.2 0.0
30/01:00am 15.1 15.1 13.6 91 0.8 SSW 6 7 3 4 1016.3 1016.2 0.0
30/12:30am 14.5 15.1 13.0 91 0.8 WNW 2 6 1 3 1016.6 1016.5 0.0
30/12:00am 15.1 14.7 13.1 88 1.1 SW 7 9 4 5 1016.7 1016.6 0.0
 
Date/Time
EST
Temp
°C
App
Temp
°C
Dew
Point
°C
Rel
Hum
%
Delta-T
°C
Wind Press
QNH
hPa
Press
MSL
hPa
Rain since
9am
mm
Dir  Spd
km/h
Gust
km/h
Spd
kts
Gust
kts
29/11:30pm 15.6 14.2 13.4 87 1.2 SSW 13 15 7 8 1017.0 1016.9 0.0
29/11:00pm 15.6 14.2 13.4 87 1.2 SW 13 15 7 8 1017.0 1016.9 0.0
29/10:30pm 16.4 15.6 14.1 86 1.3 SW 11 13 6 7 1017.1 1017.0 0.0
29/10:00pm 16.5 16.1 14.2 86 1.3 SW 9 13 5 7 1017.1 1017.0 0.0
29/09:30pm 16.7 16.0 14.3 86 1.4 SW 11 13 6 7 1017.1 1017.0 0.0
29/09:00pm 16.8 16.5 14.3 85 1.4 SSW 9 11 5 6 1017.3 1017.2 0.0
29/08:30pm 17.1 16.1 14.6 85 1.4 SSW 13 15 7 8 1017.3 1017.2 0.0
29/08:00pm 17.6 17.0 14.5 82 1.8 SSW 11 13 6 7 1017.4 1017.4 0.0
29/07:30pm 17.9 16.9 14.6 81 1.9 SSW 13 13 7 7 1017.2 1017.1 0.0
29/07:00pm 18.3 17.7 14.6 79 2.1 SSW 11 13 6 7 1016.8 1016.7 0.0
29/06:30pm 19.2 19.0 14.7 75 2.6 ESE 9 13 5 7 1016.6 1016.5 0.0
29/06:00pm 20.3 19.7 14.7 70 3.3 ESE 11 15 6 8 1016.5 1016.4 0.0
29/05:30pm 21.9 21.2 14.3 62 4.4 ESE 11 17 6 9 1016.2 1016.1 0.0
29/05:00pm 23.2 21.7 14.2 57 5.3 ESE 15 20 8 11 1015.9 1015.8 0.0
29/04:30pm 24.0 22.0 13.8 53 6.0 E 17 22 9 12 1015.6 1015.5 0.0
29/04:00pm 24.2 21.7 13.4 51 6.3 E 19 24 10 13 1015.2 1015.1 0.0
29/03:30pm 25.2 23.1 13.7 49 6.8 E 17 24 9 13 1015.2 1015.1 0.0
29/03:00pm 24.9 23.2 12.5 46 7.1 E 13 24 7 13 1015.2 1015.1 0.0
29/02:30pm 25.3 23.0 12.9 46 7.2 E 17 22 9 12 1015.2 1015.1 0.0
29/02:00pm 25.4 22.6 12.6 45 7.4 E 19 26 10 14 1015.4 1015.3 0.0
29/01:30pm 25.2 22.2 12.4 45 7.4 E 20 28 11 15 1015.8 1015.7 0.0
29/01:00pm 24.8 22.0 12.7 47 7.0 E 19 28 10 15 1016.0 1015.9 0.0
29/12:30pm 24.9 22.4 12.2 45 7.3 E 17 28 9 15 1016.5 1016.4 0.0
29/12:00pm 24.1 21.1 11.8 46 7.0 ESE 19 28 10 15 1016.8 1016.7 0.0
29/11:30am 25.0 23.0 12.6 46 7.2 ESE 15 24 8 13 1017.3 1017.2 0.0
29/11:00am 24.3 21.0 10.9 43 7.5 ESE 19 28 10 15 1018.0 1017.9 0.0
29/10:30am 24.3 21.1 9.8 40 7.9 SE 17 26 9 14 1018.2 1018.1 0.0
29/10:00am 22.3 19.5 8.4 41 7.3 ESE 13 19 7 10 1018.3 1018.2 0.0
29/09:30am 21.7 20.2 9.3 45 6.6 SE 7 11 4 6 1018.5 1018.4 0.0
29/09:00am 19.3 18.1 8.0 48 5.8 SSW 4 7 2 4 1018.4 1018.3 0.0
29/08:30am 16.9 15.6 9.3 61 4.0 NW 6 7 3 4 1018.3 1018.2 0.0
29/08:00am 14.5 13.8 8.7 68 2.9 WNW 2 6 1 3 1017.9 1017.8 0.0
29/07:30am 12.3 11.4 9.3 82 1.5 W 4 6 2 3 1017.8 1017.7 0.0
29/07:00am 9.5 9.1 8.3 92 0.6 CALM 0 6 0 3 1017.4 1017.4 0.0
29/06:30am 8.1 6.2 6.7 91 0.6 NNE 6 11 3 6 1017.0 1016.9 0.0
29/06:00am 8.2 6.6 6.5 89 0.8 NW 4 6 2 3 1016.6 1016.5 0.0
29/05:30am 9.3 6.3 5.9 79 1.6 SW 11 13 6 7 1016.3 1016.2 0.0
29/05:00am 9.7 6.8 6.6 81 1.4 SW 11 13 6 7 1016.2 1016.1 0.0
29/04:30am 10.0 6.8 6.7 80 1.5 SSW 13 15 7 8 1016.1 1016.0 0.0
29/04:00am 10.1 6.9 7.0 81 1.5 SSW 13 15 7 8 1016.0 1015.9 0.0
29/03:30am 10.9 7.0 7.0 77 1.9 SSW 17 19 9 10 1016.1 1016.0 0.0
29/03:00am 10.4 6.9 7.3 81 1.5 SSW 15 17 8 9 1016.2 1016.1 0.0
29/02:30am 10.6 6.8 7.5 81 1.5 SSW 17 19 9 10 1016.4 1016.3 0.0
29/02:00am 10.9 7.9 7.6 80 1.6 SW 13 15 7 8 1016.8 1016.7 0.0
29/01:30am 11.1 8.6 8.3 83 1.4 SSW 11 13 6 7 1016.9 1016.8 0.0
29/01:00am 11.3 8.9 8.5 83 1.4 SW 11 13 6 7 1017.1 1017.0 0.0
29/12:30am 11.4 8.4 9.3 87 1.1 SW 15 17 8 9 1017.2 1017.1 0.0
29/12:00am 10.7 9.2 9.3 91 0.7 SW 7 11 4 6 1017.4 1017.4 0.0
 
Date/Time
EST
Temp
°C
App
Temp
°C
Dew
Point
°C
Rel
Hum
%
Delta-T
°C
Wind Press
QNH
hPa
Press
MSL
hPa
Rain since
9am
mm
Dir  Spd
km/h
Gust
km/h
Spd
kts
Gust
kts
28/11:30pm 12.0 11.7 10.2 89 0.9 SW 2 9 1 5 1017.6 1017.6 0.0
28/11:00pm 12.9 11.8 10.6 86 1.2 SW 7 9 4 5 1018.0 1017.9 0.0
28/10:30pm 14.0 12.6 10.8 81 1.7 SW 9 9 5 5 1017.9 1017.8 0.0
28/10:00pm 13.9 11.4 11.1 83 1.5 SW 15 17 8 9 1017.6 1017.6 0.0
28/09:30pm 13.5 10.8 10.5 82 1.6 SSW 15 15 8 8 1017.6 1017.6 0.0
28/09:00pm 15.1 13.1 11.5 79 1.9 SSW 13 13 7 7 1017.5 1017.5 0.0
28/08:30pm 15.0 13.2 10.8 76 2.2 SW 11 11 6 6 1017.3 1017.2 0.0
28/08:00pm 16.3 14.9 11.0 71 2.8 SSW 9 11 5 6 1016.9 1016.8 0.0
28/07:30pm 17.4 16.7 11.4 68 3.3 S 6 9 3 5 1016.6 1016.5 0.0
28/07:00pm 17.8 16.6 11.6 67 3.4 SE 9 13 5 7 1016.2 1016.1 0.0
28/06:30pm 18.1 17.2 11.4 65 3.7 SSE 7 9 4 5 1015.7 1015.6 0.0
28/06:00pm 20.0 19.0 10.4 54 5.2 ESE 6 7 3 4 1015.3 1015.2 0.0
28/05:30pm 20.7 19.0 9.9 50 5.8 E 9 9 5 5 1014.8 1014.7 0.0
28/05:00pm 22.0 19.4 9.5 45 6.7 E 13 17 7 9 1014.4 1014.3 0.0
28/04:30pm 22.8 20.1 8.9 41 7.4 E 13 17 7 9 1014.0 1013.9 0.0
28/04:00pm 23.3 20.3 9.3 41 7.6 ESE 15 20 8 11 1013.9 1013.8 0.0
28/03:30pm 23.4 20.2 8.3 38 8.0 SE 15 20 8 11 1013.8 1013.7 0.0
28/03:00pm 23.8 20.4 9.0 39 8.0 ESE 17 22 9 12 1013.7 1013.6 0.0
28/02:30pm 23.5 19.5 8.4 38 8.0 E 19 24 10 13 1013.7 1013.6 0.0
28/02:00pm 23.3 18.8 8.6 39 7.8 E 22 30 12 16 1013.9 1013.8 0.0
28/01:30pm 23.4 19.4 8.3 38 8.0 E 19 26 10 14 1014.2 1014.1 0.0
28/01:00pm 23.5 20.1 7.6 36 8.3 E 15 26 8 14 1014.8 1014.7 0.0
28/12:30pm 23.0 18.7 7.1 36 8.2 ENE 19 30 10 16 1015.4 1015.3 0.0
28/12:00pm 22.5 18.9 6.7 36 8.1 E 15 20 8 11 1016.1 1016.0 0.0
28/11:30am 22.3 18.9 6.1 35 8.2 E 13 19 7 10 1016.7 1016.6 0.0
28/11:00am 22.2 20.0 6.0 35 8.2 ESE 7 11 4 6 1017.2 1017.1 0.0
28/10:30am 21.6 18.3 4.7 33 8.3 E 11 20 6 11 1017.9 1017.8 0.0
28/10:00am 21.2 17.4 5.9 37 7.6 ESE 15 20 8 11 1018.3 1018.2 0.0
28/09:30am 20.6 16.9 6.2 39 7.2 ESE 15 22 8 12 1018.4 1018.3 0.0
28/09:00am 19.4 14.9 4.4 37 7.2 ESE 17 22 9 12 1018.4 1018.3 0.0
28/08:30am 18.8 13.7 4.2 38 7.0 SE 20 24 11 13 1018.3 1018.2 0.0
28/08:00am 18.0 13.3 6.2 46 5.8 SE 20 26 11 14 1017.9 1017.8 0.0
28/07:30am 16.9 12.7 5.8 48 5.4 ESE 17 22 9 12 1017.4 1017.4 0.0
28/07:00am 15.0 12.2 6.8 58 4.0 ESE 11 17 6 9 1017.0 1016.9 0.0
28/06:30am 14.9 10.8 6.2 56 4.2 SE 17 24 9 13 1016.8 1016.7 0.0
28/06:00am 15.0 10.4 6.3 56 4.2 SE 20 28 11 15 1016.2 1016.1 0.0
28/05:30am 15.2 10.8 6.7 57 4.1 ESE 19 26 10 14 1016.1 1016.0 0.0
28/05:00am 16.0 12.4 9.7 66 3.3 SE 19 28 10 15 1015.8 1015.7 0.0
28/04:30am 16.5 13.2 11.6 73 2.7 SE 20 30 11 16 1015.4 1015.3 0.0
28/04:00am 15.5 14.3 11.7 78 2.1 ESE 9 11 5 6 1015.3 1015.2 0.0
28/03:30am 16.1 15.0 13.0 82 1.7 SSE 11 13 6 7 1015.0 1014.9 0.0
28/03:00am 16.6 15.9 14.4 87 1.3 SSE 11 13 6 7 1014.8 1014.7 0.0
28/02:30am 16.5 16.6 15.5 94 0.6 S 9 13 5 7 1014.6 1014.5 0.0
28/02:00am 16.7 16.9 15.7 94 0.6 SSE 9 11 5 6 1014.7 1014.6 0.0
28/01:30am 16.9 17.2 16.1 95 0.5 SSW 9 11 5 6 1014.8 1014.7 0.0
28/01:00am 17.5 18.6 16.5 94 0.6 SW 6 7 3 4 1014.7 1014.6 0.0
28/12:30am 17.6 18.4 15.9 90 1.0 SW 6 7 3 4 1015.0 1014.9 0.0
28/12:00am 17.9 18.4 15.5 86 1.4 S 7 9 4 5 1015.1 1015.0 0.0
 
Date/Time
EST
Temp
°C
App
Temp
°C
Dew
Point
°C
Rel
Hum
%
Delta-T
°C
Wind Press
QNH
hPa
Press
MSL
hPa
Rain since
9am
mm
Dir  Spd
km/h
Gust
km/h
Spd
kts
Gust
kts
27/11:30pm 18.7 19.1 16.3 86 1.4 S 9 11 5 6 1015.1 1015.0 0.0
27/11:00pm 19.5 20.2 17.1 86 1.5 S 9 11 5 6 1015.0 1014.9 0.0

Other Formats:

Comma delimited format used in spreadsheet applications
http://www.bom.gov.au/fwo/IDQ60801/IDQ60801.94365.axf

JavaScript Object Notation format (JSON) in row-major order
http://www.bom.gov.au/fwo/IDQ60801/IDQ60801.94365.json